sensor_id;sensor_type;location;lat;lon;timestamp;P1;durP1;ratioP1;P2;durP2;ratioP2
5543;SDS011;2795;47.652;13.128;2023-12-20T00:01:01;21.27;;;5.73;;
5543;SDS011;2795;47.652;13.128;2023-12-20T00:03:28;17.03;;;5.30;;
5543;SDS011;2795;47.652;13.128;2023-12-20T00:06:07;19.43;;;5.20;;
5543;SDS011;2795;47.652;13.128;2023-12-20T00:08:33;17.90;;;5.10;;
5543;SDS011;2795;47.652;13.128;2023-12-20T00:11:00;14.13;;;4.50;;
5543;SDS011;2795;47.652;13.128;2023-12-20T00:13:27;23.13;;;6.03;;
5543;SDS011;2795;47.652;13.128;2023-12-20T00:15:53;16.90;;;4.50;;
5543;SDS011;2795;47.652;13.128;2023-12-20T00:18:20;13.17;;;5.20;;
5543;SDS011;2795;47.652;13.128;2023-12-20T00:20:47;21.50;;;6.07;;
5543;SDS011;2795;47.652;13.128;2023-12-20T00:23:13;17.77;;;5.40;;
5543;SDS011;2795;47.652;13.128;2023-12-20T00:25:40;13.43;;;4.80;;
5543;SDS011;2795;47.652;13.128;2023-12-20T00:28:07;20.80;;;5.40;;
5543;SDS011;2795;47.652;13.128;2023-12-20T00:30:34;18.60;;;5.80;;
5543;SDS011;2795;47.652;13.128;2023-12-20T00:33:01;15.30;;;4.40;;
5543;SDS011;2795;47.652;13.128;2023-12-20T00:35:28;18.40;;;4.93;;
5543;SDS011;2795;47.652;13.128;2023-12-20T00:37:55;15.40;;;4.87;;
5543;SDS011;2795;47.652;13.128;2023-12-20T00:40:22;39.63;;;7.80;;
5543;SDS011;2795;47.652;13.128;2023-12-20T00:42:48;20.60;;;5.33;;
5543;SDS011;2795;47.652;13.128;2023-12-20T00:45:15;14.17;;;4.30;;
5543;SDS011;2795;47.652;13.128;2023-12-20T00:47:42;21.17;;;5.87;;
5543;SDS011;2795;47.652;13.128;2023-12-20T00:50:09;16.20;;;4.73;;
5543;SDS011;2795;47.652;13.128;2023-12-20T00:52:36;15.67;;;4.53;;
5543;SDS011;2795;47.652;13.128;2023-12-20T00:55:03;16.07;;;4.60;;
5543;SDS011;2795;47.652;13.128;2023-12-20T00:57:30;17.40;;;5.10;;
5543;SDS011;2795;47.652;13.128;2023-12-20T00:59:57;18.23;;;5.20;;
5543;SDS011;2795;47.652;13.128;2023-12-20T01:02:24;19.23;;;5.47;;
5543;SDS011;2795;47.652;13.128;2023-12-20T01:04:51;19.67;;;5.43;;
5543;SDS011;2795;47.652;13.128;2023-12-20T01:07:18;17.90;;;5.47;;
5543;SDS011;2795;47.652;13.128;2023-12-20T01:09:45;23.60;;;6.40;;
5543;SDS011;2795;47.652;13.128;2023-12-20T01:12:12;21.80;;;6.10;;
5543;SDS011;2795;47.652;13.128;2023-12-20T01:14:38;17.87;;;5.40;;
5543;SDS011;2795;47.652;13.128;2023-12-20T01:17:06;21.77;;;6.27;;
5543;SDS011;2795;47.652;13.128;2023-12-20T01:19:32;15.73;;;5.10;;
5543;SDS011;2795;47.652;13.128;2023-12-20T01:21:59;27.77;;;7.33;;
5543;SDS011;2795;47.652;13.128;2023-12-20T01:24:26;21.37;;;6.23;;
5543;SDS011;2795;47.652;13.128;2023-12-20T01:26:53;13.03;;;5.00;;
5543;SDS011;2795;47.652;13.128;2023-12-20T01:29:19;27.47;;;7.30;;
5543;SDS011;2795;47.652;13.128;2023-12-20T01:31:46;21.87;;;5.90;;
5543;SDS011;2795;47.652;13.128;2023-12-20T01:34:13;10.93;;;4.27;;
5543;SDS011;2795;47.652;13.128;2023-12-20T01:36:40;20.30;;;6.00;;
5543;SDS011;2795;47.652;13.128;2023-12-20T01:39:06;17.63;;;5.40;;
5543;SDS011;2795;47.652;13.128;2023-12-20T01:41:50;19.43;;;5.37;;
5543;SDS011;2795;47.652;13.128;2023-12-20T01:44:16;11.67;;;4.43;;
5543;SDS011;2795;47.652;13.128;2023-12-20T01:46:43;17.40;;;5.50;;
5543;SDS011;2795;47.652;13.128;2023-12-20T01:49:10;15.83;;;5.53;;
5543;SDS011;2795;47.652;13.128;2023-12-20T01:51:37;12.23;;;4.47;;
5543;SDS011;2795;47.652;13.128;2023-12-20T01:54:04;18.10;;;5.47;;
5543;SDS011;2795;47.652;13.128;2023-12-20T01:56:31;25.10;;;6.57;;
5543;SDS011;2795;47.652;13.128;2023-12-20T01:58:58;15.03;;;5.53;;
5543;SDS011;2795;47.652;13.128;2023-12-20T02:01:25;21.17;;;5.90;;
5543;SDS011;2795;47.652;13.128;2023-12-20T02:03:52;21.27;;;6.17;;
5543;SDS011;2795;47.652;13.128;2023-12-20T02:06:18;36.77;;;8.00;;
5543;SDS011;2795;47.652;13.128;2023-12-20T02:08:48;21.90;;;6.27;;
5543;SDS011;2795;47.652;13.128;2023-12-20T02:11:16;20.33;;;5.93;;
5543;SDS011;2795;47.652;13.128;2023-12-20T02:13:43;20.63;;;5.90;;
5543;SDS011;2795;47.652;13.128;2023-12-20T02:16:10;14.60;;;4.83;;
5543;SDS011;2795;47.652;13.128;2023-12-20T02:18:36;14.63;;;4.77;;
5543;SDS011;2795;47.652;13.128;2023-12-20T02:21:04;17.00;;;5.90;;
5543;SDS011;2795;47.652;13.128;2023-12-20T02:23:32;20.77;;;5.97;;
5543;SDS011;2795;47.652;13.128;2023-12-20T02:25:58;10.00;;;4.23;;
5543;SDS011;2795;47.652;13.128;2023-12-20T02:28:25;23.53;;;5.93;;
5543;SDS011;2795;47.652;13.128;2023-12-20T02:30:52;14.67;;;5.00;;
5543;SDS011;2795;47.652;13.128;2023-12-20T02:33:19;18.07;;;5.37;;
5543;SDS011;2795;47.652;13.128;2023-12-20T02:35:46;28.73;;;8.20;;
5543;SDS011;2795;47.652;13.128;2023-12-20T02:38:13;17.87;;;5.90;;
5543;SDS011;2795;47.652;13.128;2023-12-20T02:40:40;16.20;;;6.03;;
5543;SDS011;2795;47.652;13.128;2023-12-20T02:43:14;15.60;;;5.10;;
5543;SDS011;2795;47.652;13.128;2023-12-20T02:45:41;17.33;;;5.40;;
5543;SDS011;2795;47.652;13.128;2023-12-20T02:48:08;18.00;;;5.70;;
5543;SDS011;2795;47.652;13.128;2023-12-20T02:50:35;16.83;;;5.50;;
5543;SDS011;2795;47.652;13.128;2023-12-20T02:53:01;17.60;;;5.60;;
5543;SDS011;2795;47.652;13.128;2023-12-20T02:55:28;22.57;;;6.17;;
5543;SDS011;2795;47.652;13.128;2023-12-20T02:57:55;16.63;;;5.17;;
5543;SDS011;2795;47.652;13.128;2023-12-20T03:00:21;15.80;;;5.23;;
5543;SDS011;2795;47.652;13.128;2023-12-20T03:02:49;16.83;;;5.47;;
5543;SDS011;2795;47.652;13.128;2023-12-20T03:05:16;12.90;;;5.00;;
5543;SDS011;2795;47.652;13.128;2023-12-20T03:07:43;21.10;;;6.60;;
5543;SDS011;2795;47.652;13.128;2023-12-20T03:10:10;17.73;;;5.67;;
5543;SDS011;2795;47.652;13.128;2023-12-20T03:12:49;18.20;;;5.57;;
5543;SDS011;2795;47.652;13.128;2023-12-20T03:15:16;20.33;;;6.30;;
5543;SDS011;2795;47.652;13.128;2023-12-20T03:17:42;23.30;;;6.53;;
5543;SDS011;2795;47.652;13.128;2023-12-20T03:20:10;20.10;;;6.30;;
5543;SDS011;2795;47.652;13.128;2023-12-20T03:22:37;19.60;;;5.87;;
5543;SDS011;2795;47.652;13.128;2023-12-20T03:25:03;21.23;;;6.23;;
5543;SDS011;2795;47.652;13.128;2023-12-20T03:27:30;21.20;;;6.00;;
5543;SDS011;2795;47.652;13.128;2023-12-20T03:29:57;21.03;;;5.73;;
5543;SDS011;2795;47.652;13.128;2023-12-20T03:32:24;18.20;;;5.33;;
5543;SDS011;2795;47.652;13.128;2023-12-20T03:34:50;22.40;;;6.57;;
5543;SDS011;2795;47.652;13.128;2023-12-20T03:37:17;12.63;;;4.70;;
5543;SDS011;2795;47.652;13.128;2023-12-20T03:39:44;19.13;;;5.90;;
5543;SDS011;2795;47.652;13.128;2023-12-20T03:42:11;14.90;;;5.40;;
5543;SDS011;2795;47.652;13.128;2023-12-20T03:44:39;18.93;;;5.60;;
5543;SDS011;2795;47.652;13.128;2023-12-20T03:47:06;18.53;;;5.67;;
5543;SDS011;2795;47.652;13.128;2023-12-20T03:49:34;21.73;;;5.90;;
5543;SDS011;2795;47.652;13.128;2023-12-20T03:52:03;25.83;;;7.13;;
5543;SDS011;2795;47.652;13.128;2023-12-20T03:54:30;20.20;;;6.47;;
5543;SDS011;2795;47.652;13.128;2023-12-20T03:56:57;15.13;;;5.77;;
5543;SDS011;2795;47.652;13.128;2023-12-20T03:59:24;20.13;;;5.90;;
5543;SDS011;2795;47.652;13.128;2023-12-20T04:01:53;16.60;;;5.10;;
5543;SDS011;2795;47.652;13.128;2023-12-20T04:04:20;23.53;;;6.30;;
5543;SDS011;2795;47.652;13.128;2023-12-20T04:06:47;22.57;;;6.60;;
5543;SDS011;2795;47.652;13.128;2023-12-20T04:09:14;11.33;;;5.00;;
5543;SDS011;2795;47.652;13.128;2023-12-20T04:11:41;17.13;;;5.80;;
5543;SDS011;2795;47.652;13.128;2023-12-20T04:14:07;20.40;;;6.47;;
5543;SDS011;2795;47.652;13.128;2023-12-20T04:16:34;13.80;;;5.70;;
5543;SDS011;2795;47.652;13.128;2023-12-20T04:19:01;11.27;;;5.00;;
5543;SDS011;2795;47.652;13.128;2023-12-20T04:21:29;17.70;;;6.30;;
5543;SDS011;2795;47.652;13.128;2023-12-20T04:23:55;23.10;;;7.37;;
5543;SDS011;2795;47.652;13.128;2023-12-20T04:26:22;27.00;;;8.43;;
5543;SDS011;2795;47.652;13.128;2023-12-20T04:28:49;31.23;;;8.13;;
5543;SDS011;2795;47.652;13.128;2023-12-20T04:31:19;22.37;;;6.30;;
5543;SDS011;2795;47.652;13.128;2023-12-20T04:33:46;23.37;;;6.70;;
5543;SDS011;2795;47.652;13.128;2023-12-20T04:36:13;19.70;;;5.93;;
5543;SDS011;2795;47.652;13.128;2023-12-20T04:38:39;24.27;;;7.00;;
5543;SDS011;2795;47.652;13.128;2023-12-20T04:41:06;23.47;;;6.37;;
5543;SDS011;2795;47.652;13.128;2023-12-20T04:43:33;25.00;;;7.00;;
5543;SDS011;2795;47.652;13.128;2023-12-20T04:45:59;18.80;;;6.10;;
5543;SDS011;2795;47.652;13.128;2023-12-20T04:48:26;26.33;;;6.53;;
5543;SDS011;2795;47.652;13.128;2023-12-20T04:50:53;18.57;;;5.93;;
5543;SDS011;2795;47.652;13.128;2023-12-20T04:53:19;16.80;;;6.03;;
5543;SDS011;2795;47.652;13.128;2023-12-20T04:55:46;17.40;;;5.93;;
5543;SDS011;2795;47.652;13.128;2023-12-20T04:58:13;26.20;;;6.37;;
5543;SDS011;2795;47.652;13.128;2023-12-20T05:00:39;13.03;;;5.03;;
5543;SDS011;2795;47.652;13.128;2023-12-20T05:03:06;17.43;;;6.00;;
5543;SDS011;2795;47.652;13.128;2023-12-20T05:05:33;25.70;;;7.43;;
5543;SDS011;2795;47.652;13.128;2023-12-20T05:08:00;25.43;;;6.60;;
5543;SDS011;2795;47.652;13.128;2023-12-20T05:10:27;26.90;;;7.30;;
5543;SDS011;2795;47.652;13.128;2023-12-20T05:12:54;18.87;;;6.10;;
5543;SDS011;2795;47.652;13.128;2023-12-20T05:15:21;15.30;;;5.77;;
5543;SDS011;2795;47.652;13.128;2023-12-20T05:17:47;23.13;;;7.00;;
5543;SDS011;2795;47.652;13.128;2023-12-20T05:20:14;13.90;;;5.40;;
5543;SDS011;2795;47.652;13.128;2023-12-20T05:22:41;22.33;;;7.17;;
5543;SDS011;2795;47.652;13.128;2023-12-20T05:25:08;23.53;;;7.07;;
5543;SDS011;2795;47.652;13.128;2023-12-20T05:27:34;15.50;;;5.73;;
5543;SDS011;2795;47.652;13.128;2023-12-20T05:30:02;28.87;;;8.50;;
5543;SDS011;2795;47.652;13.128;2023-12-20T05:32:31;28.77;;;7.87;;
5543;SDS011;2795;47.652;13.128;2023-12-20T05:34:57;19.03;;;6.63;;
5543;SDS011;2795;47.652;13.128;2023-12-20T05:37:24;39.27;;;9.23;;
5543;SDS011;2795;47.652;13.128;2023-12-20T05:39:51;22.03;;;7.03;;
5543;SDS011;2795;47.652;13.128;2023-12-20T05:42:19;18.90;;;6.77;;
5543;SDS011;2795;47.652;13.128;2023-12-20T05:44:45;23.63;;;7.70;;
5543;SDS011;2795;47.652;13.128;2023-12-20T05:47:12;18.60;;;6.60;;
5543;SDS011;2795;47.652;13.128;2023-12-20T05:49:39;27.73;;;6.73;;
5543;SDS011;2795;47.652;13.128;2023-12-20T05:52:05;31.83;;;7.80;;
5543;SDS011;2795;47.652;13.128;2023-12-20T05:54:33;23.00;;;6.90;;
5543;SDS011;2795;47.652;13.128;2023-12-20T05:57:00;22.43;;;7.30;;
5543;SDS011;2795;47.652;13.128;2023-12-20T05:59:27;23.07;;;7.40;;
5543;SDS011;2795;47.652;13.128;2023-12-20T06:01:54;23.03;;;7.10;;
5543;SDS011;2795;47.652;13.128;2023-12-20T06:04:21;27.43;;;8.37;;
5543;SDS011;2795;47.652;13.128;2023-12-20T06:06:49;23.63;;;7.00;;
5543;SDS011;2795;47.652;13.128;2023-12-20T06:09:16;26.40;;;7.50;;
5543;SDS011;2795;47.652;13.128;2023-12-20T06:11:42;17.10;;;6.80;;
5543;SDS011;2795;47.652;13.128;2023-12-20T06:14:09;22.80;;;7.60;;
5543;SDS011;2795;47.652;13.128;2023-12-20T06:16:36;22.17;;;7.80;;
5543;SDS011;2795;47.652;13.128;2023-12-20T06:19:02;18.50;;;7.27;;
5543;SDS011;2795;47.652;13.128;2023-12-20T06:21:29;17.40;;;6.97;;
5543;SDS011;2795;47.652;13.128;2023-12-20T06:23:56;22.50;;;8.00;;
5543;SDS011;2795;47.652;13.128;2023-12-20T06:26:23;28.47;;;8.40;;
5543;SDS011;2795;47.652;13.128;2023-12-20T06:28:50;34.63;;;9.83;;
5543;SDS011;2795;47.652;13.128;2023-12-20T06:31:17;32.53;;;9.40;;
5543;SDS011;2795;47.652;13.128;2023-12-20T06:33:44;20.47;;;6.93;;
5543;SDS011;2795;47.652;13.128;2023-12-20T06:36:11;26.47;;;7.73;;
5543;SDS011;2795;47.652;13.128;2023-12-20T06:38:39;26.87;;;6.73;;
5543;SDS011;2795;47.652;13.128;2023-12-20T06:41:06;22.53;;;7.27;;
5543;SDS011;2795;47.652;13.128;2023-12-20T06:43:32;21.67;;;7.37;;
5543;SDS011;2795;47.652;13.128;2023-12-20T06:46:14;18.13;;;6.40;;
5543;SDS011;2795;47.652;13.128;2023-12-20T06:48:41;24.27;;;7.63;;
5543;SDS011;2795;47.652;13.128;2023-12-20T06:51:13;20.33;;;7.20;;
5543;SDS011;2795;47.652;13.128;2023-12-20T06:53:41;18.50;;;7.10;;
5543;SDS011;2795;47.652;13.128;2023-12-20T06:56:10;26.10;;;8.47;;
5543;SDS011;2795;47.652;13.128;2023-12-20T06:58:39;23.90;;;7.87;;
5543;SDS011;2795;47.652;13.128;2023-12-20T07:01:10;26.70;;;7.97;;
5543;SDS011;2795;47.652;13.128;2023-12-20T07:03:38;19.73;;;7.40;;
5543;SDS011;2795;47.652;13.128;2023-12-20T07:06:06;25.97;;;8.33;;
5543;SDS011;2795;47.652;13.128;2023-12-20T07:08:33;20.00;;;6.33;;
5543;SDS011;2795;47.652;13.128;2023-12-20T07:10:59;16.33;;;6.23;;
5543;SDS011;2795;47.652;13.128;2023-12-20T07:13:26;22.67;;;7.80;;
5543;SDS011;2795;47.652;13.128;2023-12-20T07:15:53;22.80;;;8.07;;
5543;SDS011;2795;47.652;13.128;2023-12-20T07:18:19;26.13;;;8.23;;
5543;SDS011;2795;47.652;13.128;2023-12-20T07:20:46;30.67;;;8.47;;
5543;SDS011;2795;47.652;13.128;2023-12-20T07:23:13;26.00;;;7.80;;
5543;SDS011;2795;47.652;13.128;2023-12-20T07:25:39;21.17;;;7.53;;
5543;SDS011;2795;47.652;13.128;2023-12-20T07:28:06;26.00;;;8.83;;
5543;SDS011;2795;47.652;13.128;2023-12-20T07:30:33;20.53;;;7.27;;
5543;SDS011;2795;47.652;13.128;2023-12-20T07:33:00;22.47;;;8.20;;
5543;SDS011;2795;47.652;13.128;2023-12-20T07:35:27;26.90;;;9.00;;
5543;SDS011;2795;47.652;13.128;2023-12-20T07:37:54;31.17;;;10.13;;
5543;SDS011;2795;47.652;13.128;2023-12-20T07:40:21;21.93;;;8.30;;
5543;SDS011;2795;47.652;13.128;2023-12-20T07:42:48;29.93;;;9.87;;
5543;SDS011;2795;47.652;13.128;2023-12-20T07:45:14;27.77;;;9.50;;
5543;SDS011;2795;47.652;13.128;2023-12-20T07:47:41;24.77;;;8.97;;
5543;SDS011;2795;47.652;13.128;2023-12-20T07:50:08;33.83;;;9.93;;
5543;SDS011;2795;47.652;13.128;2023-12-20T07:52:36;24.63;;;8.17;;
5543;SDS011;2795;47.652;13.128;2023-12-20T07:55:03;24.57;;;8.83;;
5543;SDS011;2795;47.652;13.128;2023-12-20T07:57:30;25.27;;;9.00;;
5543;SDS011;2795;47.652;13.128;2023-12-20T07:59:57;31.90;;;9.73;;
5543;SDS011;2795;47.652;13.128;2023-12-20T08:02:23;28.00;;;9.70;;
5543;SDS011;2795;47.652;13.128;2023-12-20T08:04:51;27.53;;;8.90;;
5543;SDS011;2795;47.652;13.128;2023-12-20T08:07:18;30.83;;;9.73;;
5543;SDS011;2795;47.652;13.128;2023-12-20T08:09:44;29.63;;;8.27;;
5543;SDS011;2795;47.652;13.128;2023-12-20T08:12:11;26.27;;;8.60;;
5543;SDS011;2795;47.652;13.128;2023-12-20T08:14:38;25.97;;;8.37;;
5543;SDS011;2795;47.652;13.128;2023-12-20T08:17:05;25.10;;;8.00;;
5543;SDS011;2795;47.652;13.128;2023-12-20T08:19:31;24.80;;;7.73;;
5543;SDS011;2795;47.652;13.128;2023-12-20T08:21:58;20.40;;;6.77;;
5543;SDS011;2795;47.652;13.128;2023-12-20T08:24:25;29.93;;;8.83;;
5543;SDS011;2795;47.652;13.128;2023-12-20T08:26:51;25.00;;;8.50;;
5543;SDS011;2795;47.652;13.128;2023-12-20T08:29:18;24.20;;;8.10;;
5543;SDS011;2795;47.652;13.128;2023-12-20T08:31:45;34.80;;;9.10;;
5543;SDS011;2795;47.652;13.128;2023-12-20T08:34:13;25.17;;;8.23;;
5543;SDS011;2795;47.652;13.128;2023-12-20T08:36:41;19.73;;;7.00;;
5543;SDS011;2795;47.652;13.128;2023-12-20T08:39:08;27.43;;;8.20;;
5543;SDS011;2795;47.652;13.128;2023-12-20T08:41:35;25.00;;;7.97;;
5543;SDS011;2795;47.652;13.128;2023-12-20T08:44:01;15.60;;;6.70;;
5543;SDS011;2795;47.652;13.128;2023-12-20T08:46:28;29.70;;;8.60;;
5543;SDS011;2795;47.652;13.128;2023-12-20T08:48:55;23.10;;;7.47;;
5543;SDS011;2795;47.652;13.128;2023-12-20T08:51:23;27.00;;;9.07;;
5543;SDS011;2795;47.652;13.128;2023-12-20T08:53:51;28.90;;;9.07;;
5543;SDS011;2795;47.652;13.128;2023-12-20T08:56:18;20.63;;;7.47;;
5543;SDS011;2795;47.652;13.128;2023-12-20T08:58:45;41.27;;;12.30;;
5543;SDS011;2795;47.652;13.128;2023-12-20T09:01:13;31.17;;;10.67;;
5543;SDS011;2795;47.652;13.128;2023-12-20T09:03:40;31.43;;;10.87;;
5543;SDS011;2795;47.652;13.128;2023-12-20T09:06:08;29.23;;;10.13;;
5543;SDS011;2795;47.652;13.128;2023-12-20T09:08:35;27.33;;;9.47;;
5543;SDS011;2795;47.652;13.128;2023-12-20T09:11:01;19.83;;;7.57;;
5543;SDS011;2795;47.652;13.128;2023-12-20T09:13:29;30.00;;;9.67;;
5543;SDS011;2795;47.652;13.128;2023-12-20T09:15:55;22.77;;;8.00;;
5543;SDS011;2795;47.652;13.128;2023-12-20T09:18:22;24.70;;;8.13;;
5543;SDS011;2795;47.652;13.128;2023-12-20T09:20:49;59.33;;;20.20;;
5543;SDS011;2795;47.652;13.128;2023-12-20T09:23:17;67.80;;;22.87;;
5543;SDS011;2795;47.652;13.128;2023-12-20T09:25:44;46.90;;;17.10;;
5543;SDS011;2795;47.652;13.128;2023-12-20T09:28:11;41.00;;;12.37;;
5543;SDS011;2795;47.652;13.128;2023-12-20T09:30:38;36.30;;;11.00;;
5543;SDS011;2795;47.652;13.128;2023-12-20T09:33:06;32.60;;;9.80;;
5543;SDS011;2795;47.652;13.128;2023-12-20T09:35:34;27.83;;;9.50;;
5543;SDS011;2795;47.652;13.128;2023-12-20T09:38:01;25.73;;;8.80;;
5543;SDS011;2795;47.652;13.128;2023-12-20T09:40:28;27.27;;;10.50;;
5543;SDS011;2795;47.652;13.128;2023-12-20T09:45:23;35.63;;;10.20;;
5543;SDS011;2795;47.652;13.128;2023-12-20T09:47:51;37.43;;;11.30;;
5543;SDS011;2795;47.652;13.128;2023-12-20T09:50:19;27.30;;;9.80;;
5543;SDS011;2795;47.652;13.128;2023-12-20T09:52:51;22.90;;;8.53;;
5543;SDS011;2795;47.652;13.128;2023-12-20T09:55:18;24.00;;;7.90;;
5543;SDS011;2795;47.652;13.128;2023-12-20T09:57:47;22.30;;;7.70;;
5543;SDS011;2795;47.652;13.128;2023-12-20T10:00:15;19.97;;;7.00;;
5543;SDS011;2795;47.652;13.128;2023-12-20T10:02:49;26.50;;;8.50;;
5543;SDS011;2795;47.652;13.128;2023-12-20T10:05:18;21.03;;;7.63;;
5543;SDS011;2795;47.652;13.128;2023-12-20T10:07:46;37.37;;;9.57;;
5543;SDS011;2795;47.652;13.128;2023-12-20T10:10:14;34.20;;;9.97;;
5543;SDS011;2795;47.652;13.128;2023-12-20T10:12:42;21.53;;;7.70;;
5543;SDS011;2795;47.652;13.128;2023-12-20T10:15:27;26.00;;;8.67;;
5543;SDS011;2795;47.652;13.128;2023-12-20T10:17:54;24.20;;;8.30;;
5543;SDS011;2795;47.652;13.128;2023-12-20T10:20:26;27.63;;;8.77;;
5543;SDS011;2795;47.652;13.128;2023-12-20T10:22:56;30.57;;;10.47;;
5543;SDS011;2795;47.652;13.128;2023-12-20T10:25:24;28.17;;;9.57;;
5543;SDS011;2795;47.652;13.128;2023-12-20T10:28:08;31.53;;;9.23;;
5543;SDS011;2795;47.652;13.128;2023-12-20T10:30:49;28.70;;;9.87;;
5543;SDS011;2795;47.652;13.128;2023-12-20T10:33:24;20.87;;;8.33;;
5543;SDS011;2795;47.652;13.128;2023-12-20T10:35:53;35.13;;;12.00;;
5543;SDS011;2795;47.652;13.128;2023-12-20T10:38:20;27.43;;;10.87;;
5543;SDS011;2795;47.652;13.128;2023-12-20T10:40:47;33.30;;;9.90;;
5543;SDS011;2795;47.652;13.128;2023-12-20T10:43:13;30.83;;;10.77;;
5543;SDS011;2795;47.652;13.128;2023-12-20T10:45:41;25.57;;;10.00;;
5543;SDS011;2795;47.652;13.128;2023-12-20T10:48:10;35.47;;;10.40;;
5543;SDS011;2795;47.652;13.128;2023-12-20T10:50:38;31.50;;;10.23;;
5543;SDS011;2795;47.652;13.128;2023-12-20T10:53:06;32.20;;;10.20;;
5543;SDS011;2795;47.652;13.128;2023-12-20T10:55:33;26.43;;;9.20;;
5543;SDS011;2795;47.652;13.128;2023-12-20T10:58:01;28.17;;;9.90;;
5543;SDS011;2795;47.652;13.128;2023-12-20T11:00:30;27.13;;;10.20;;
5543;SDS011;2795;47.652;13.128;2023-12-20T11:03:01;31.00;;;9.17;;
5543;SDS011;2795;47.652;13.128;2023-12-20T11:05:36;35.00;;;11.00;;
5543;SDS011;2795;47.652;13.128;2023-12-20T11:08:47;30.67;;;9.20;;
5543;SDS011;2795;47.652;13.128;2023-12-20T11:11:21;29.17;;;9.70;;
5543;SDS011;2795;47.652;13.128;2023-12-20T11:16:20;31.00;;;9.33;;
5543;SDS011;2795;47.652;13.128;2023-12-20T11:18:50;34.63;;;10.70;;
5543;SDS011;2795;47.652;13.128;2023-12-20T11:21:17;26.27;;;8.70;;
5543;SDS011;2795;47.652;13.128;2023-12-20T11:23:44;73.57;;;18.30;;
5543;SDS011;2795;47.652;13.128;2023-12-20T11:26:11;52.87;;;14.17;;
5543;SDS011;2795;47.652;13.128;2023-12-20T11:28:37;30.93;;;9.63;;
5543;SDS011;2795;47.652;13.128;2023-12-20T11:31:04;34.00;;;10.17;;
5543;SDS011;2795;47.652;13.128;2023-12-20T11:33:35;24.57;;;8.33;;
5543;SDS011;2795;47.652;13.128;2023-12-20T11:36:03;32.90;;;10.03;;
5543;SDS011;2795;47.652;13.128;2023-12-20T11:38:39;27.23;;;9.20;;
5543;SDS011;2795;47.652;13.128;2023-12-20T11:41:19;20.93;;;8.07;;
5543;SDS011;2795;47.652;13.128;2023-12-20T11:43:48;37.27;;;10.90;;
5543;SDS011;2795;47.652;13.128;2023-12-20T11:46:16;27.53;;;9.23;;
5543;SDS011;2795;47.652;13.128;2023-12-20T11:48:42;51.20;;;9.50;;
5543;SDS011;2795;47.652;13.128;2023-12-20T11:51:11;31.13;;;9.80;;
5543;SDS011;2795;47.652;13.128;2023-12-20T11:53:39;27.63;;;10.30;;
5543;SDS011;2795;47.652;13.128;2023-12-20T11:56:07;31.57;;;8.27;;
5543;SDS011;2795;47.652;13.128;2023-12-20T11:58:34;35.57;;;9.73;;
5543;SDS011;2795;47.652;13.128;2023-12-20T12:01:01;32.73;;;9.83;;
5543;SDS011;2795;47.652;13.128;2023-12-20T12:03:29;29.60;;;9.10;;
5543;SDS011;2795;47.652;13.128;2023-12-20T12:05:56;20.13;;;7.30;;
5543;SDS011;2795;47.652;13.128;2023-12-20T12:08:26;31.27;;;9.57;;
5543;SDS011;2795;47.652;13.128;2023-12-20T12:10:53;42.53;;;9.70;;
5543;SDS011;2795;47.652;13.128;2023-12-20T12:13:20;29.00;;;9.27;;
5543;SDS011;2795;47.652;13.128;2023-12-20T12:15:47;26.70;;;8.73;;
5543;SDS011;2795;47.652;13.128;2023-12-20T12:18:17;29.77;;;8.57;;
5543;SDS011;2795;47.652;13.128;2023-12-20T12:20:44;20.63;;;7.33;;
5543;SDS011;2795;47.652;13.128;2023-12-20T12:23:12;25.50;;;8.10;;
5543;SDS011;2795;47.652;13.128;2023-12-20T12:25:38;26.33;;;8.37;;
5543;SDS011;2795;47.652;13.128;2023-12-20T12:28:09;29.10;;;9.23;;
5543;SDS011;2795;47.652;13.128;2023-12-20T12:30:36;26.23;;;8.20;;
5543;SDS011;2795;47.652;13.128;2023-12-20T12:33:11;30.27;;;9.73;;
5543;SDS011;2795;47.652;13.128;2023-12-20T12:35:38;31.90;;;9.73;;
5543;SDS011;2795;47.652;13.128;2023-12-20T12:38:06;26.50;;;8.73;;
5543;SDS011;2795;47.652;13.128;2023-12-20T12:40:34;34.83;;;10.07;;
5543;SDS011;2795;47.652;13.128;2023-12-20T12:43:02;34.70;;;10.07;;
5543;SDS011;2795;47.652;13.128;2023-12-20T12:45:29;27.57;;;8.00;;
5543;SDS011;2795;47.652;13.128;2023-12-20T12:47:55;32.77;;;7.53;;
5543;SDS011;2795;47.652;13.128;2023-12-20T12:50:22;35.93;;;9.07;;
5543;SDS011;2795;47.652;13.128;2023-12-20T12:52:49;31.77;;;9.60;;
5543;SDS011;2795;47.652;13.128;2023-12-20T12:55:16;26.13;;;9.20;;
5543;SDS011;2795;47.652;13.128;2023-12-20T12:57:43;32.03;;;9.70;;
5543;SDS011;2795;47.652;13.128;2023-12-20T13:00:10;34.37;;;9.83;;
5543;SDS011;2795;47.652;13.128;2023-12-20T13:02:37;25.67;;;8.73;;
5543;SDS011;2795;47.652;13.128;2023-12-20T13:05:08;31.07;;;9.80;;
5543;SDS011;2795;47.652;13.128;2023-12-20T13:07:36;32.63;;;11.60;;
5543;SDS011;2795;47.652;13.128;2023-12-20T13:10:04;35.63;;;12.03;;
5543;SDS011;2795;47.652;13.128;2023-12-20T13:12:32;29.30;;;10.40;;
5543;SDS011;2795;47.652;13.128;2023-12-20T13:14:59;27.43;;;10.03;;
5543;SDS011;2795;47.652;13.128;2023-12-20T13:17:25;41.80;;;12.87;;
5543;SDS011;2795;47.652;13.128;2023-12-20T13:19:55;26.37;;;10.40;;
5543;SDS011;2795;47.652;13.128;2023-12-20T13:22:22;27.70;;;11.40;;
5543;SDS011;2795;47.652;13.128;2023-12-20T13:24:49;23.63;;;10.17;;
5543;SDS011;2795;47.652;13.128;2023-12-20T13:27:16;27.47;;;9.83;;
5543;SDS011;2795;47.652;13.128;2023-12-20T13:29:42;29.33;;;10.87;;
5543;SDS011;2795;47.652;13.128;2023-12-20T13:32:09;26.43;;;10.10;;
5543;SDS011;2795;47.652;13.128;2023-12-20T13:34:36;23.90;;;9.53;;
5543;SDS011;2795;47.652;13.128;2023-12-20T13:37:03;37.73;;;11.97;;
5543;SDS011;2795;47.652;13.128;2023-12-20T13:39:31;35.67;;;12.87;;
5543;SDS011;2795;47.652;13.128;2023-12-20T13:41:58;36.37;;;12.63;;
5543;SDS011;2795;47.652;13.128;2023-12-20T13:44:26;29.37;;;10.70;;
5543;SDS011;2795;47.652;13.128;2023-12-20T13:46:53;36.33;;;12.23;;
5543;SDS011;2795;47.652;13.128;2023-12-20T13:49:20;26.33;;;10.10;;
5543;SDS011;2795;47.652;13.128;2023-12-20T13:51:47;28.50;;;10.47;;
5543;SDS011;2795;47.652;13.128;2023-12-20T13:54:14;28.70;;;10.90;;
5543;SDS011;2795;47.652;13.128;2023-12-20T13:56:43;32.03;;;10.20;;
5543;SDS011;2795;47.652;13.128;2023-12-20T13:59:28;30.43;;;9.57;;
5543;SDS011;2795;47.652;13.128;2023-12-20T14:01:55;20.70;;;7.70;;
5543;SDS011;2795;47.652;13.128;2023-12-20T14:04:23;27.97;;;8.20;;
5543;SDS011;2795;47.652;13.128;2023-12-20T14:07:08;20.93;;;7.60;;
5543;SDS011;2795;47.652;13.128;2023-12-20T14:09:37;22.70;;;7.90;;
5543;SDS011;2795;47.652;13.128;2023-12-20T14:12:04;19.27;;;5.80;;
5543;SDS011;2795;47.652;13.128;2023-12-20T14:14:31;19.43;;;6.80;;
5543;SDS011;2795;47.652;13.128;2023-12-20T14:16:58;26.70;;;8.40;;
5543;SDS011;2795;47.652;13.128;2023-12-20T14:19:24;26.90;;;8.17;;
5543;SDS011;2795;47.652;13.128;2023-12-20T14:21:51;26.20;;;8.20;;
5543;SDS011;2795;47.652;13.128;2023-12-20T14:24:18;22.13;;;7.67;;
5543;SDS011;2795;47.652;13.128;2023-12-20T14:26:44;23.40;;;7.80;;
5543;SDS011;2795;47.652;13.128;2023-12-20T14:29:11;25.43;;;8.40;;
5543;SDS011;2795;47.652;13.128;2023-12-20T14:31:38;29.40;;;9.07;;
5543;SDS011;2795;47.652;13.128;2023-12-20T14:34:06;27.97;;;8.87;;
5543;SDS011;2795;47.652;13.128;2023-12-20T14:36:34;30.97;;;10.07;;
5543;SDS011;2795;47.652;13.128;2023-12-20T14:39:01;31.67;;;9.53;;
5543;SDS011;2795;47.652;13.128;2023-12-20T14:41:30;26.23;;;8.23;;
5543;SDS011;2795;47.652;13.128;2023-12-20T14:43:58;24.50;;;8.03;;
5543;SDS011;2795;47.652;13.128;2023-12-20T14:46:26;28.13;;;9.50;;
5543;SDS011;2795;47.652;13.128;2023-12-20T14:48:55;30.53;;;9.63;;
5543;SDS011;2795;47.652;13.128;2023-12-20T14:51:22;28.43;;;9.30;;
5543;SDS011;2795;47.652;13.128;2023-12-20T14:53:49;24.53;;;8.17;;